createdAt,value
2023-04-09T00:00:47.280Z,7.20
2023-04-09T00:03:14.314Z,7.20
2023-04-09T00:05:41.406Z,7.30
2023-04-09T00:08:15.233Z,7.20
2023-04-09T00:10:42.147Z,7.30
2023-04-09T00:13:16.964Z,7.20
2023-04-09T00:15:48.680Z,7.30
2023-04-09T00:18:16.275Z,7.30
2023-04-09T00:20:44.264Z,7.20
2023-04-09T00:23:12.971Z,7.10
2023-04-09T00:25:40.051Z,7.10
2023-04-09T00:28:07.046Z,6.90
2023-04-09T00:30:34.061Z,6.90
2023-04-09T00:33:02.435Z,7.10
2023-04-09T00:35:29.399Z,7.00
2023-04-09T00:37:56.415Z,7.00
2023-04-09T00:40:23.339Z,6.90
2023-04-09T00:42:50.361Z,6.90
2023-04-09T00:45:17.299Z,6.90
2023-04-09T00:47:44.330Z,6.90
2023-04-09T00:50:12.772Z,6.80
2023-04-09T00:52:39.863Z,6.70
2023-04-09T00:55:08.060Z,6.70
2023-04-09T00:57:35.007Z,6.60
2023-04-09T01:00:02.066Z,6.60
2023-04-09T01:02:29.259Z,6.60
2023-04-09T01:04:56.405Z,6.60
2023-04-09T01:07:36.987Z,6.60
2023-04-09T01:10:14.039Z,6.60
2023-04-09T01:12:49.568Z,6.70
2023-04-09T01:15:22.873Z,6.70
2023-04-09T01:17:57.570Z,6.60
2023-04-09T01:20:32.656Z,6.70
2023-04-09T01:23:11.292Z,6.60
2023-04-09T01:25:48.448Z,6.70
2023-04-09T01:28:19.186Z,6.70
2023-04-09T01:30:49.563Z,6.50
2023-04-09T01:33:19.696Z,6.50
2023-04-09T01:35:49.436Z,6.50
2023-04-09T01:38:19.605Z,6.40
2023-04-09T01:40:47.158Z,6.40
2023-04-09T01:43:16.056Z,6.40
2023-04-09T01:45:45.185Z,6.40
2023-04-09T01:48:13.404Z,6.30
2023-04-09T01:50:41.258Z,6.40
2023-04-09T01:53:08.642Z,6.30
2023-04-09T01:55:35.595Z,6.30
2023-04-09T01:58:09.270Z,6.20
2023-04-09T02:00:47.286Z,6.10
2023-04-09T02:03:25.306Z,6.20
2023-04-09T02:06:03.237Z,6.10
2023-04-09T02:08:37.261Z,6.10
2023-04-09T02:11:15.261Z,6.20
2023-04-09T02:13:49.262Z,6.00
2023-04-09T02:16:24.240Z,6.10
2023-04-09T02:19:00.261Z,6.00
2023-04-09T02:21:34.265Z,6.00
2023-04-09T02:24:07.272Z,6.00
2023-04-09T02:26:34.222Z,6.10
2023-04-09T02:29:07.280Z,6.00
2023-04-09T02:31:35.730Z,6.00
2023-04-09T02:34:09.261Z,5.90
2023-04-09T02:36:36.252Z,5.80
2023-04-09T02:39:03.565Z,5.80
2023-04-09T02:41:30.540Z,5.80
2023-04-09T02:43:57.435Z,5.80
2023-04-09T02:46:24.446Z,5.90
2023-04-09T02:48:53.734Z,5.90
2023-04-09T02:51:20.945Z,5.90
2023-04-09T02:53:47.944Z,5.70
2023-04-09T02:56:15.090Z,5.60
2023-04-09T02:58:41.990Z,5.60
2023-04-09T03:01:08.989Z,5.60
2023-04-09T03:03:36.060Z,5.60
2023-04-09T03:06:05.063Z,5.70
2023-04-09T03:08:32.227Z,5.70
2023-04-09T03:10:59.193Z,5.70
2023-04-09T03:13:27.808Z,5.60
2023-04-09T03:15:54.826Z,5.60
2023-04-09T03:18:21.831Z,5.60
2023-04-09T03:20:49.241Z,5.60
2023-04-09T03:23:17.588Z,5.60
2023-04-09T03:25:44.528Z,5.60
2023-04-09T03:28:11.564Z,5.70
2023-04-09T03:30:38.488Z,5.60
2023-04-09T03:33:05.614Z,5.60
2023-04-09T03:35:32.604Z,5.50
2023-04-09T03:37:59.560Z,5.50
2023-04-09T03:40:27.909Z,5.50
2023-04-09T03:42:54.887Z,5.60
2023-04-09T03:45:21.806Z,5.60
2023-04-09T03:47:48.813Z,5.60
2023-04-09T03:50:15.864Z,5.50
2023-04-09T03:52:42.808Z,5.50
2023-04-09T03:55:10.507Z,5.40
2023-04-09T03:57:38.927Z,5.40
2023-04-09T04:00:07.379Z,5.50
2023-04-09T04:02:34.473Z,5.50
2023-04-09T04:05:01.608Z,5.60
2023-04-09T04:07:28.583Z,5.60
2023-04-09T04:09:55.526Z,5.60
2023-04-09T04:12:22.549Z,5.60
2023-04-09T04:14:50.858Z,5.60
2023-04-09T04:17:17.952Z,5.70
2023-04-09T04:19:44.873Z,5.80
2023-04-09T04:22:11.835Z,5.80
2023-04-09T04:24:38.938Z,5.90
2023-04-09T04:27:05.872Z,5.90
2023-04-09T04:29:32.943Z,5.90
2023-04-09T04:32:01.506Z,5.90
2023-04-09T04:34:28.598Z,5.80
2023-04-09T04:36:55.501Z,5.60
2023-04-09T04:39:22.443Z,5.70
2023-04-09T04:41:49.400Z,5.70
2023-04-09T04:44:16.377Z,5.70
2023-04-09T04:46:43.344Z,5.70
2023-04-09T04:49:11.748Z,5.80
2023-04-09T04:51:40.110Z,5.80
2023-04-09T04:54:07.226Z,5.80
2023-04-09T04:56:34.171Z,5.80
2023-04-09T04:59:01.132Z,5.80
2023-04-09T05:01:28.177Z,5.90
2023-04-09T05:03:55.452Z,5.90
2023-04-09T05:06:24.108Z,5.90
2023-04-09T05:08:51.306Z,5.90
2023-04-09T05:11:18.422Z,5.90
2023-04-09T05:13:45.496Z,5.90
2023-04-09T05:16:16.826Z,6.00
2023-04-09T05:18:43.833Z,6.00
2023-04-09T05:21:10.949Z,6.10
2023-04-09T05:23:39.289Z,6.20
2023-04-09T05:26:06.425Z,6.00
2023-04-09T05:28:34.315Z,6.00
2023-04-09T05:31:01.307Z,6.00
2023-04-09T05:33:28.292Z,6.10
2023-04-09T05:35:55.290Z,6.20
2023-04-09T05:38:22.390Z,6.20
2023-04-09T05:40:51.189Z,6.30
2023-04-09T05:43:18.068Z,6.40
2023-04-09T05:45:45.090Z,6.40
2023-04-09T05:48:12.046Z,6.40
2023-04-09T05:50:53.434Z,6.50
2023-04-09T05:53:22.247Z,6.60
2023-04-09T05:55:50.638Z,6.60
2023-04-09T05:58:18.488Z,6.70
2023-04-09T06:00:45.444Z,6.70
2023-04-09T06:03:12.544Z,6.80
2023-04-09T06:05:39.631Z,6.80
2023-04-09T06:08:06.653Z,6.90
2023-04-09T06:10:33.646Z,7.00
2023-04-09T06:13:01.975Z,7.00
2023-04-09T06:15:29.022Z,6.90
2023-04-09T06:17:58.152Z,6.80
2023-04-09T06:20:26.358Z,6.90
2023-04-09T06:22:53.215Z,6.90
2023-04-09T06:25:20.269Z,7.10
2023-04-09T06:27:47.342Z,7.10
2023-04-09T06:30:15.784Z,7.30
2023-04-09T06:32:53.114Z,7.30
2023-04-09T06:35:21.283Z,7.40
2023-04-09T06:37:48.223Z,7.60
2023-04-09T06:40:15.354Z,7.90
2023-04-09T06:42:42.267Z,8.30
2023-04-09T06:45:09.855Z,8.80
2023-04-09T06:47:38.122Z,9.60
2023-04-09T06:50:06.205Z,10.30
2023-04-09T06:52:33.156Z,11.20
2023-04-09T06:55:00.382Z,11.90
2023-04-09T06:57:27.432Z,12.70
2023-04-09T06:59:54.400Z,13.20
2023-04-09T07:02:22.037Z,13.50
2023-04-09T07:04:50.505Z,14.00
2023-04-09T07:07:17.520Z,14.50
2023-04-09T07:09:45.093Z,14.80
2023-04-09T07:12:12.112Z,14.90
2023-04-09T07:14:39.109Z,15.40
2023-04-09T07:17:06.485Z,15.80
2023-04-09T07:19:33.461Z,16.30
2023-04-09T07:22:01.887Z,16.50
2023-04-09T07:24:29.000Z,16.70
2023-04-09T07:26:56.078Z,17.00
2023-04-09T07:29:23.201Z,17.20
2023-04-09T07:31:50.103Z,17.00
2023-04-09T07:34:17.078Z,17.20
2023-04-09T07:36:44.121Z,17.20
2023-04-09T07:39:12.536Z,16.80
2023-04-09T07:41:39.549Z,16.70
2023-04-09T07:44:06.580Z,16.10
2023-04-09T07:46:33.679Z,15.70
2023-04-09T07:49:00.672Z,15.70
2023-04-09T07:51:31.078Z,14.70
2023-04-09T07:53:58.179Z,15.00
2023-04-09T07:56:26.658Z,14.90
2023-04-09T07:58:53.769Z,14.40
2023-04-09T08:01:20.847Z,14.70
2023-04-09T08:03:47.860Z,14.70
2023-04-09T08:06:15.010Z,14.80
2023-04-09T08:08:42.356Z,15.10
2023-04-09T08:11:09.283Z,15.00
2023-04-09T08:13:37.630Z,14.10
2023-04-09T08:16:04.787Z,15.00
2023-04-09T08:18:31.761Z,15.60
2023-04-09T08:20:58.683Z,15.80
2023-04-09T08:23:25.611Z,16.10
2023-04-09T08:25:52.577Z,15.70
2023-04-09T08:28:19.536Z,16.00
2023-04-09T08:30:47.863Z,15.70
2023-04-09T08:33:15.070Z,15.60
2023-04-09T08:35:42.072Z,15.60
2023-04-09T08:38:09.307Z,16.40
2023-04-09T08:40:36.519Z,16.10
2023-04-09T08:43:05.970Z,16.30
2023-04-09T08:45:33.626Z,16.20
2023-04-09T08:48:08.638Z,15.80
2023-04-09T08:50:36.252Z,15.60
2023-04-09T08:53:04.509Z,16.00
2023-04-09T08:55:31.857Z,16.30
2023-04-09T08:57:59.015Z,16.00
2023-04-09T09:00:26.304Z,16.20
2023-04-09T09:03:05.338Z,16.30
2023-04-09T09:05:40.173Z,16.60
2023-04-09T09:08:08.646Z,16.80
2023-04-09T09:10:40.115Z,16.30
2023-04-09T09:13:21.903Z,16.50
2023-04-09T09:15:49.547Z,16.70
2023-04-09T09:18:18.324Z,16.60
2023-04-09T09:20:45.355Z,16.00
2023-04-09T09:23:12.357Z,15.30
2023-04-09T09:25:41.406Z,15.10
2023-04-09T09:28:09.701Z,14.90
2023-04-09T09:30:37.590Z,15.00
2023-04-09T09:33:08.666Z,15.20
2023-04-09T09:35:50.537Z,15.00
2023-04-09T09:38:17.968Z,15.40
2023-04-09T09:40:45.076Z,15.30
2023-04-09T09:43:13.494Z,15.30
2023-04-09T09:45:42.105Z,15.10
2023-04-09T09:48:11.664Z,14.80
2023-04-09T09:50:40.275Z,15.00
2023-04-09T09:53:10.069Z,15.30
2023-04-09T09:55:39.597Z,14.90
2023-04-09T09:58:12.508Z,15.10
2023-04-09T10:00:40.751Z,15.10
2023-04-09T10:03:12.637Z,14.90
2023-04-09T10:05:41.544Z,14.90
2023-04-09T10:08:10.855Z,14.90
2023-04-09T10:10:39.205Z,15.60
2023-04-09T10:13:09.776Z,16.20
2023-04-09T10:15:36.951Z,16.30
2023-04-09T10:18:04.340Z,16.00
2023-04-09T10:20:40.606Z,15.90
2023-04-09T10:23:24.408Z,16.20
2023-04-09T10:25:51.630Z,16.20
2023-04-09T10:28:19.198Z,16.60
2023-04-09T10:30:46.307Z,16.00
2023-04-09T10:33:14.843Z,15.80
2023-04-09T10:35:42.598Z,16.10
2023-04-09T10:38:10.751Z,16.50
2023-04-09T10:40:47.174Z,17.40
2023-04-09T10:43:14.816Z,17.20
2023-04-09T10:45:42.613Z,17.00
2023-04-09T10:48:13.597Z,17.60
2023-04-09T10:50:43.076Z,18.00
2023-04-09T10:53:22.035Z,18.30
2023-04-09T10:55:51.234Z,18.50
2023-04-09T10:58:18.279Z,18.50
2023-04-09T11:00:47.290Z,18.80
2023-04-09T11:03:22.184Z,19.00
2023-04-09T11:05:52.652Z,19.00
2023-04-09T11:08:20.085Z,19.10
2023-04-09T11:10:47.878Z,19.20
2023-04-09T11:13:20.500Z,19.20
2023-04-09T11:15:47.457Z,19.10
2023-04-09T11:18:15.500Z,19.10
2023-04-09T11:20:43.009Z,19.10
2023-04-09T11:23:11.921Z,19.30
2023-04-09T11:25:39.064Z,19.90
2023-04-09T11:28:06.906Z,20.60
2023-04-09T11:30:36.029Z,20.80
2023-04-09T11:33:03.205Z,20.80
2023-04-09T11:35:30.251Z,20.70
2023-04-09T11:37:57.238Z,20.60
2023-04-09T11:40:25.716Z,20.40
2023-04-09T11:42:54.518Z,20.40
2023-04-09T11:45:24.362Z,19.80
2023-04-09T11:47:53.158Z,18.20
2023-04-09T11:50:20.929Z,18.70
2023-04-09T11:52:48.714Z,19.30
2023-04-09T11:55:24.378Z,20.10
2023-04-09T11:57:53.111Z,19.90
2023-04-09T12:00:20.549Z,20.20
2023-04-09T12:02:49.329Z,19.40
2023-04-09T12:05:24.146Z,19.10
2023-04-09T12:07:56.338Z,19.80
2023-04-09T12:10:27.410Z,20.40
2023-04-09T12:12:54.544Z,20.10
2023-04-09T12:15:23.080Z,20.30
2023-04-09T12:17:51.849Z,20.30
2023-04-09T12:20:34.484Z,20.10
2023-04-09T12:23:03.257Z,20.00
2023-04-09T12:25:30.823Z,19.90
2023-04-09T12:27:58.097Z,19.60
2023-04-09T12:30:25.384Z,19.50
2023-04-09T12:32:53.274Z,19.80
2023-04-09T12:35:20.673Z,20.20
2023-04-09T12:37:49.377Z,20.40
2023-04-09T12:40:16.509Z,19.50
2023-04-09T12:42:45.174Z,19.10
2023-04-09T12:45:15.576Z,19.60
2023-04-09T12:47:42.898Z,19.00
2023-04-09T12:50:11.381Z,19.10
2023-04-09T12:52:38.540Z,19.60
2023-04-09T12:55:07.915Z,19.80
2023-04-09T12:57:37.456Z,20.20
2023-04-09T13:00:05.514Z,20.20
2023-04-09T13:02:32.571Z,20.30
2023-04-09T13:05:00.166Z,19.90
2023-04-09T13:07:27.082Z,20.00
2023-04-09T13:09:53.997Z,20.30
2023-04-09T13:12:22.475Z,20.40
2023-04-09T13:14:51.013Z,20.00
2023-04-09T13:17:18.213Z,19.80
2023-04-09T13:19:48.246Z,20.00
2023-04-09T13:22:15.542Z,20.10
2023-04-09T13:24:42.565Z,19.40
2023-04-09T13:27:09.712Z,19.60
2023-04-09T13:29:38.193Z,19.30
2023-04-09T13:32:05.713Z,19.50
2023-04-09T13:34:33.128Z,19.60
2023-04-09T13:37:00.055Z,19.10
2023-04-09T13:39:26.945Z,19.30
2023-04-09T13:41:53.897Z,19.30
2023-04-09T13:44:20.869Z,19.00
2023-04-09T13:46:49.223Z,19.00
2023-04-09T13:49:16.236Z,18.90
2023-04-09T13:51:43.219Z,18.60
2023-04-09T13:54:10.153Z,18.30
2023-04-09T13:56:37.416Z,18.50
2023-04-09T13:59:04.304Z,19.00
2023-04-09T14:01:31.274Z,19.30
2023-04-09T14:03:59.645Z,19.30
2023-04-09T14:06:26.652Z,19.20
2023-04-09T14:08:54.088Z,18.90
2023-04-09T14:11:21.235Z,18.60
2023-04-09T14:13:48.155Z,18.40
2023-04-09T14:16:15.155Z,18.40
2023-04-09T14:18:42.067Z,18.00
2023-04-09T14:21:10.532Z,17.90
2023-04-09T14:23:38.863Z,17.90
2023-04-09T14:26:06.600Z,18.00
2023-04-09T14:28:33.621Z,18.00
2023-04-09T14:31:00.793Z,17.80
2023-04-09T14:33:28.119Z,17.60
2023-04-09T14:35:55.126Z,17.70
2023-04-09T14:38:23.510Z,18.00
2023-04-09T14:40:50.541Z,18.20
2023-04-09T14:43:17.450Z,18.30
2023-04-09T14:45:44.435Z,18.40
2023-04-09T14:48:11.316Z,18.50
2023-04-09T14:50:38.249Z,18.30
2023-04-09T14:53:05.258Z,18.20
2023-04-09T14:55:34.721Z,18.10
2023-04-09T14:58:02.030Z,18.00
2023-04-09T15:00:28.932Z,18.00
2023-04-09T15:02:55.975Z,17.90
2023-04-09T15:05:23.316Z,18.10
2023-04-09T15:07:50.362Z,18.20
2023-04-09T15:10:17.577Z,18.20
2023-04-09T15:12:45.924Z,18.10
2023-04-09T15:15:12.823Z,18.00
2023-04-09T15:17:40.097Z,17.80
2023-04-09T15:20:08.058Z,17.90
2023-04-09T15:22:34.985Z,18.00
2023-04-09T15:25:01.927Z,18.00
2023-04-09T15:27:28.830Z,18.10
2023-04-09T15:29:57.151Z,18.50
2023-04-09T15:32:24.117Z,18.90
2023-04-09T15:34:51.116Z,19.20
2023-04-09T15:37:18.082Z,19.40
2023-04-09T15:39:44.959Z,19.60
2023-04-09T15:42:13.554Z,19.60
2023-04-09T15:44:41.635Z,19.80
2023-04-09T15:47:09.950Z,19.90
2023-04-09T15:49:36.959Z,20.10
2023-04-09T15:52:04.211Z,20.20
2023-04-09T15:54:31.135Z,20.10
2023-04-09T15:56:58.285Z,20.00
2023-04-09T15:59:25.279Z,20.00
2023-04-09T16:01:52.640Z,20.10
2023-04-09T16:04:21.037Z,20.00
2023-04-09T16:06:48.066Z,20.20
2023-04-09T16:09:16.384Z,20.10
2023-04-09T16:11:43.300Z,20.10
2023-04-09T16:14:10.229Z,19.90
2023-04-09T16:16:37.373Z,19.60
2023-04-09T16:19:04.433Z,19.50
2023-04-09T16:21:32.797Z,19.90
2023-04-09T16:24:00.947Z,19.80
2023-04-09T16:26:27.925Z,19.20
2023-04-09T16:28:55.271Z,19.00
2023-04-09T16:31:22.534Z,19.00
2023-04-09T16:33:49.492Z,18.70
2023-04-09T16:36:16.600Z,18.60
2023-04-09T16:38:44.924Z,18.50
2023-04-09T16:41:11.902Z,18.40
2023-04-09T16:43:38.850Z,18.00
2023-04-09T16:46:06.040Z,17.80
2023-04-09T16:48:33.049Z,17.60
2023-04-09T16:51:00.191Z,17.50
2023-04-09T16:53:27.277Z,17.50
2023-04-09T16:55:55.518Z,17.30
2023-04-09T16:58:22.507Z,17.20
2023-04-09T17:00:51.440Z,17.20
2023-04-09T17:03:19.541Z,17.20
2023-04-09T17:05:47.187Z,17.10
2023-04-09T17:08:14.176Z,17.00
2023-04-09T17:10:41.176Z,17.00
2023-04-09T17:13:09.820Z,17.00
2023-04-09T17:15:36.907Z,17.00
2023-04-09T17:18:04.322Z,17.10
2023-04-09T17:20:31.891Z,17.20
2023-04-09T17:22:58.985Z,17.40
2023-04-09T17:25:25.991Z,17.30
2023-04-09T17:27:53.733Z,17.10
2023-04-09T17:30:22.362Z,17.00
2023-04-09T17:32:50.220Z,17.00
2023-04-09T17:35:17.265Z,16.90
2023-04-09T17:37:44.277Z,16.90
2023-04-09T17:40:12.173Z,16.90
2023-04-09T17:42:39.174Z,16.70
2023-04-09T17:45:07.406Z,16.60
2023-04-09T17:47:35.818Z,16.40
2023-04-09T17:50:02.829Z,16.30
2023-04-09T17:52:30.272Z,16.20
2023-04-09T17:54:57.255Z,16.00
2023-04-09T17:57:24.325Z,16.00
2023-04-09T17:59:51.338Z,15.80
2023-04-09T18:02:18.398Z,15.80
2023-04-09T18:04:47.232Z,15.80
2023-04-09T18:07:14.286Z,15.60
2023-04-09T18:09:41.276Z,15.50
2023-04-09T18:12:08.261Z,15.40
2023-04-09T18:14:35.166Z,15.30
2023-04-09T18:17:02.219Z,15.20
2023-04-09T18:19:29.196Z,15.10
2023-04-09T18:21:57.568Z,15.00
2023-04-09T18:24:24.613Z,15.00
2023-04-09T18:26:51.624Z,14.90
2023-04-09T18:29:18.620Z,14.80
2023-04-09T18:31:45.706Z,14.60
2023-04-09T18:34:12.811Z,14.70
2023-04-09T18:36:39.883Z,14.80
2023-04-09T18:39:08.411Z,14.70
2023-04-09T18:41:35.356Z,14.60
2023-04-09T18:44:02.474Z,14.50
2023-04-09T18:46:29.531Z,14.50
2023-04-09T18:48:56.734Z,14.40
2023-04-09T18:51:23.693Z,14.30
2023-04-09T18:53:50.617Z,14.30
2023-04-09T18:56:18.939Z,14.20
2023-04-09T18:58:45.922Z,14.20
2023-04-09T19:01:12.909Z,14.20
2023-04-09T19:03:40.336Z,14.20
2023-04-09T19:06:11.544Z,14.10
2023-04-09T19:08:38.567Z,14.00
2023-04-09T19:11:05.756Z,14.00
2023-04-09T19:13:34.292Z,13.90
2023-04-09T19:16:01.255Z,13.90
2023-04-09T19:18:28.241Z,14.00
2023-04-09T19:20:55.278Z,14.00
2023-04-09T19:23:22.208Z,14.00
2023-04-09T19:25:50.898Z,13.90
2023-04-09T19:28:17.828Z,13.80
2023-04-09T19:30:46.198Z,13.80
2023-04-09T19:33:13.171Z,13.80
2023-04-09T19:35:40.217Z,13.70
2023-04-09T19:38:07.512Z,13.70
2023-04-09T19:40:34.530Z,13.70
2023-04-09T19:43:01.752Z,13.70
2023-04-09T19:45:28.833Z,13.70
2023-04-09T19:47:57.146Z,13.60
2023-04-09T19:50:24.227Z,13.60
2023-04-09T19:52:51.174Z,13.70
2023-04-09T19:55:18.227Z,13.60
2023-04-09T19:57:45.139Z,13.60
2023-04-09T20:00:13.328Z,13.60
2023-04-09T20:02:41.031Z,13.60
2023-04-09T20:05:09.942Z,13.50
2023-04-09T20:07:36.908Z,13.50
2023-04-09T20:10:04.375Z,13.40
2023-04-09T20:12:31.505Z,13.50
2023-04-09T20:14:58.895Z,13.60
2023-04-09T20:17:25.980Z,13.60
2023-04-09T20:19:52.940Z,13.50
2023-04-09T20:22:21.317Z,13.50
2023-04-09T20:24:48.528Z,13.30
2023-04-09T20:27:15.764Z,13.30
2023-04-09T20:29:42.749Z,13.30
2023-04-09T20:32:09.833Z,13.20
2023-04-09T20:34:36.972Z,13.20
2023-04-09T20:37:03.968Z,13.10
2023-04-09T20:39:32.591Z,13.10
2023-04-09T20:41:59.574Z,13.10
2023-04-09T20:44:27.582Z,13.10
2023-04-09T20:46:54.716Z,13.20
2023-04-09T20:49:21.733Z,13.20
2023-04-09T20:51:48.783Z,13.20
2023-04-09T20:54:15.839Z,12.90
2023-04-09T20:56:44.214Z,12.80
2023-04-09T20:59:11.261Z,12.70
2023-04-09T21:01:38.313Z,12.60
2023-04-09T21:04:05.542Z,12.50
2023-04-09T21:06:33.880Z,12.60
2023-04-09T21:09:00.828Z,12.60
2023-04-09T21:11:27.829Z,12.60
2023-04-09T21:13:56.241Z,12.50
2023-04-09T21:16:23.501Z,12.50
2023-04-09T21:18:50.962Z,12.50
2023-04-09T21:21:18.105Z,12.50
2023-04-09T21:23:45.066Z,12.40
2023-04-09T21:26:12.088Z,12.30
2023-04-09T21:28:39.101Z,12.30
2023-04-09T21:31:09.299Z,12.20
2023-04-09T21:33:36.356Z,12.30
2023-04-09T21:36:03.756Z,12.20
2023-04-09T21:38:30.716Z,12.30
2023-04-09T21:40:57.723Z,12.10
2023-04-09T21:43:25.810Z,12.10
2023-04-09T21:45:52.910Z,12.10
2023-04-09T21:48:21.293Z,12.10
2023-04-09T21:50:48.324Z,12.10
2023-04-09T21:53:15.454Z,12.10
2023-04-09T21:55:42.410Z,12.10
2023-04-09T21:58:09.505Z,12.20
2023-04-09T22:00:36.491Z,12.20
2023-04-09T22:03:03.828Z,12.10
2023-04-09T22:05:32.975Z,12.20
2023-04-09T22:08:00.312Z,12.00
2023-04-09T22:10:27.681Z,12.00
2023-04-09T22:12:54.692Z,12.10
2023-04-09T22:15:21.673Z,12.10
2023-04-09T22:17:48.885Z,12.20
2023-04-09T22:20:15.877Z,12.20
2023-04-09T22:22:44.227Z,12.20
2023-04-09T22:25:11.276Z,12.20
2023-04-09T22:27:38.411Z,12.20
2023-04-09T22:30:06.414Z,12.20
2023-04-09T22:32:33.556Z,12.10
2023-04-09T22:35:00.585Z,12.00
2023-04-09T22:37:27.606Z,11.90
2023-04-09T22:39:55.990Z,11.90
2023-04-09T22:42:22.987Z,11.80
2023-04-09T22:44:49.922Z,11.80
2023-04-09T22:47:16.879Z,11.80
2023-04-09T22:49:43.911Z,11.80
2023-04-09T22:52:10.881Z,11.90
2023-04-09T22:54:37.834Z,11.90
2023-04-09T22:57:06.317Z,12.00
2023-04-09T22:59:40.098Z,12.00
2023-04-09T23:02:07.945Z,12.00
2023-04-09T23:04:35.154Z,11.90
2023-04-09T23:07:02.177Z,11.90
2023-04-09T23:09:29.262Z,11.70
2023-04-09T23:11:56.466Z,11.70
2023-04-09T23:14:24.863Z,11.60
2023-04-09T23:16:51.813Z,11.60
2023-04-09T23:19:18.830Z,11.50
2023-04-09T23:21:45.763Z,11.40
2023-04-09T23:24:12.704Z,11.40
2023-04-09T23:26:39.667Z,11.40
2023-04-09T23:29:06.572Z,11.40
2023-04-09T23:31:34.913Z,11.60
2023-04-09T23:34:02.448Z,11.70
2023-04-09T23:36:29.521Z,11.80
2023-04-09T23:38:56.531Z,11.60
2023-04-09T23:41:23.418Z,11.70
2023-04-09T23:43:51.136Z,11.70
2023-04-09T23:46:18.213Z,11.60
2023-04-09T23:48:46.557Z,11.60
2023-04-09T23:51:17.190Z,11.60
2023-04-09T23:53:44.142Z,11.60
2023-04-09T23:56:11.125Z,11.50
2023-04-09T23:58:38.170Z,11.50
